Time;durP1;ratioP1;P1;durP2;ratioP2;P2;SDS_P1;SDS_P2;PMS_P1;PMS_P2;Temp;Humidity;BMP_temperature;BMP_pressure;BME280_temperature;BME280_humidity;BME280_pressure;Samples;Min_cycle;Max_cycle;Signal;HPM_P1;HPM_P2
2022/06/03 00:02:50;;;;;;;;;;;11.60;99.90;;;;;;5035030;28;37559;-52
2022/06/03 00:05:35;;;;;;;;;;;11.60;99.90;;;;;;5028269;28;39556;-48
2022/06/03 00:08:10;;;;;;;;;;;11.60;99.90;;;;;;5021283;28;37562;-53
2022/06/03 00:10:51;;;;;;;;;;;11.60;99.90;;;;;;5033481;28;34972;-50
2022/06/03 00:13:27;;;;;;;;;;;11.50;99.90;;;;;;5035231;28;37814;-50
2022/06/03 00:16:05;;;;;;;;;;;11.50;99.90;;;;;;5033632;28;38306;-48
2022/06/03 00:18:52;;;;;;;;;;;11.50;99.90;;;;;;5034542;28;37253;-49
2022/06/03 00:21:29;;;;;;;;;;;11.50;99.90;;;;;;5035442;28;37632;-51
2022/06/03 00:24:03;;;;;;;;;;;11.50;99.90;;;;;;5033886;28;38349;-50
2022/06/03 00:26:48;;;;;;;;;;;11.50;99.90;;;;;;5033426;28;39359;-51
2022/06/03 00:29:21;;;;;;;;;;;11.40;99.90;;;;;;5034364;28;37157;-50
2022/06/03 00:32:05;;;;;;;;;;;11.40;99.90;;;;;;5034364;28;35140;-51
2022/06/03 00:34:41;;;;;;;;;;;11.40;99.90;;;;;;5034662;28;37696;-48
2022/06/03 00:37:16;;;;;;;;;;;11.30;99.90;;;;;;5033418;28;37898;-49
2022/06/03 00:39:55;;;;;;;;;;;11.30;99.90;;;;;;5035189;28;37342;-49
2022/06/03 00:42:45;;;;;;;;;;;11.30;99.90;;;;;;5034611;28;36835;-51
2022/06/03 00:45:22;;;;;;;;;;;11.30;99.90;;;;;;5034024;28;38428;-49
2022/06/03 00:47:59;;;;;;;;;;;11.20;99.90;;;;;;5033880;28;39039;-49
2022/06/03 00:50:37;;;;;;;;;;;11.20;99.90;;;;;;5033967;28;35946;-52
2022/06/03 00:53:15;;;;;;;;;;;11.20;99.90;;;;;;5034602;28;37930;-50
2022/06/03 00:55:57;;;;;;;;;;;11.20;99.90;;;;;;5034622;28;37830;-50
2022/06/03 00:58:38;;;;;;;;;;;11.20;99.90;;;;;;5031295;28;39607;-51
2022/06/03 01:01:08;;;;;;;;;;;11.10;99.90;;;;;;5035160;28;38709;-49
2022/06/03 01:03:46;;;;;;;;;;;11.10;99.90;;;;;;5033797;28;37543;-49
2022/06/03 01:06:18;;;;;;;;;;;11.20;99.90;;;;;;5033910;28;38082;-51
2022/06/03 01:08:51;;;;;;;;;;;11.20;99.90;;;;;;5034605;28;39111;-51
2022/06/03 01:11:30;;;;;;;;;;;11.30;99.90;;;;;;5034569;28;36357;-48
2022/06/03 01:14:05;;;;;;;;;;;11.30;99.90;;;;;;5035065;28;36160;-51
2022/06/03 01:16:40;;;;;;;;;;;11.40;99.90;;;;;;5034954;28;38397;-48
2022/06/03 01:19:15;;;;;;;;;;;11.40;99.90;;;;;;5033321;28;38040;-50
2022/06/03 01:21:47;;;;;;;;;;;11.40;99.90;;;;;;5034336;28;37101;-51
2022/06/03 01:24:29;;;;;;;;;;;11.40;99.90;;;;;;5034784;28;37463;-50
2022/06/03 01:27:15;;;;;;;;;;;11.30;99.90;;;;;;5034401;28;37562;-48
2022/06/03 01:29:54;;;;;;;;;;;11.20;99.90;;;;;;5034460;28;39149;-52
2022/06/03 01:32:34;;;;;;;;;;;11.20;99.90;;;;;;5034701;28;35910;-51
2022/06/03 01:35:22;;;;;;;;;;;11.20;99.90;;;;;;5032100;28;37146;-49
2022/06/03 01:37:53;;;;;;;;;;;11.10;99.90;;;;;;5028936;28;37579;-51
2022/06/03 01:40:29;;;;;;;;;;;11.10;99.90;;;;;;5033506;28;40543;-49
2022/06/03 01:43:06;;;;;;;;;;;11.10;99.90;;;;;;5033560;28;37245;-52
2022/06/03 01:45:54;;;;;;;;;;;11.20;99.90;;;;;;5034370;28;37518;-49
2022/06/03 01:48:43;;;;;;;;;;;11.10;99.90;;;;;;5034649;28;38121;-51
2022/06/03 01:51:34;;;;;;;;;;;11.10;99.90;;;;;;5033634;28;39357;-51
2022/06/03 01:54:19;;;;;;;;;;;11.00;99.90;;;;;;4977892;28;36028;-48
2022/06/03 01:57:10;;;;;;;;;;;10.90;99.90;;;;;;5033147;28;38364;-52
2022/06/03 01:59:55;;;;;;;;;;;10.90;99.90;;;;;;4974933;28;38116;-50
2022/06/03 02:02:36;;;;;;;;;;;10.90;99.90;;;;;;5032949;28;38588;-51
2022/06/03 02:05:26;;;;;;;;;;;10.90;99.90;;;;;;5032040;28;37231;-50
2022/06/03 02:08:27;;;;;;;;;;;10.90;99.90;;;;;;4975405;28;36501;-51
2022/06/03 02:11:09;;;;;;;;;;;10.90;99.90;;;;;;4951246;28;38503;-48
2022/06/03 02:13:51;;;;;;;;;;;10.80;99.90;;;;;;4952945;28;38157;-51
2022/06/03 02:16:31;;;;;;;;;;;10.80;99.90;;;;;;4976250;28;30102;-51
2022/06/03 02:19:25;;;;;;;;;;;10.70;99.90;;;;;;5031685;28;37282;-49
2022/06/03 02:22:10;;;;;;;;;;;10.80;99.90;;;;;;4984168;28;38958;-50
2022/06/03 02:24:44;;;;;;;;;;;10.80;99.90;;;;;;5032206;28;41653;-51
2022/06/03 02:27:29;;;;;;;;;;;10.80;99.90;;;;;;5032135;28;37227;-50
2022/06/03 02:30:30;;;;;;;;;;;10.80;99.90;;;;;;5033713;28;37105;-52
2022/06/03 02:33:20;;;;;;;;;;;10.80;99.90;;;;;;5032412;28;39708;-49
2022/06/03 02:36:01;;;;;;;;;;;10.80;99.90;;;;;;5032500;28;37742;-48
2022/06/03 02:38:43;;;;;;;;;;;10.80;99.90;;;;;;5033508;28;36114;-52
2022/06/03 02:41:27;;;;;;;;;;;10.80;99.90;;;;;;5031814;28;38805;-47
2022/06/03 02:44:12;;;;;;;;;;;10.80;99.90;;;;;;5032285;28;37844;-52
2022/06/03 02:46:51;;;;;;;;;;;10.80;99.90;;;;;;5031186;28;36791;-49
2022/06/03 02:49:29;;;;;;;;;;;10.80;99.90;;;;;;5032715;28;37230;-48
2022/06/03 02:52:14;;;;;;;;;;;10.80;99.90;;;;;;5032025;28;36229;-48
2022/06/03 02:54:56;;;;;;;;;;;10.90;99.90;;;;;;5032643;28;38022;-51
2022/06/03 02:57:35;;;;;;;;;;;10.90;99.90;;;;;;4998709;28;38070;-48
2022/06/03 03:00:23;;;;;;;;;;;10.90;99.90;;;;;;5030904;28;35867;-51
2022/06/03 03:03:00;;;;;;;;;;;10.80;99.90;;;;;;5032932;28;37217;-49
2022/06/03 03:05:33;;;;;;;;;;;10.70;99.90;;;;;;5031604;28;39526;-48
2022/06/03 03:08:18;;;;;;;;;;;10.70;99.90;;;;;;5032193;28;36525;-50
2022/06/03 03:10:55;;;;;;;;;;;10.70;99.90;;;;;;4987099;28;39197;-50
2022/06/03 03:13:49;;;;;;;;;;;10.70;99.90;;;;;;5032993;28;35108;-50
2022/06/03 03:16:24;;;;;;;;;;;10.70;99.90;;;;;;4994242;28;39496;-48
2022/06/03 03:19:15;;;;;;;;;;;10.70;99.90;;;;;;5024600;28;38208;-48
2022/06/03 03:22:03;;;;;;;;;;;10.70;99.90;;;;;;5022872;28;36089;-49
2022/06/03 03:24:44;;;;;;;;;;;10.70;99.90;;;;;;5006713;28;37010;-49
2022/06/03 03:27:18;;;;;;;;;;;10.60;99.90;;;;;;5032612;28;38471;-47
2022/06/03 03:29:56;;;;;;;;;;;10.60;99.90;;;;;;5017746;28;38016;-50
2022/06/03 03:32:27;;;;;;;;;;;10.60;99.90;;;;;;5026652;28;37997;-49
2022/06/03 03:35:05;;;;;;;;;;;10.60;99.90;;;;;;5026402;28;36392;-50
2022/06/03 03:37:44;;;;;;;;;;;10.60;99.90;;;;;;5031607;28;38059;-50
2022/06/03 03:40:26;;;;;;;;;;;10.70;99.90;;;;;;5031935;28;38144;-50
2022/06/03 03:43:06;;;;;;;;;;;10.80;99.90;;;;;;5024759;28;37993;-48
2022/06/03 03:45:41;;;;;;;;;;;10.90;99.90;;;;;;5028474;28;36960;-48
2022/06/03 03:48:17;;;;;;;;;;;10.90;99.90;;;;;;5029655;28;39874;-52
2022/06/03 03:50:54;;;;;;;;;;;11.00;99.90;;;;;;5029790;28;36781;-49
2022/06/03 03:53:37;;;;;;;;;;;11.20;99.90;;;;;;5026261;28;38162;-49
2022/06/03 03:56:19;;;;;;;;;;;11.20;99.90;;;;;;5023718;28;36935;-49
2022/06/03 03:58:59;;;;;;;;;;;11.40;99.90;;;;;;5026111;28;38469;-48
2022/06/03 04:01:44;;;;;;;;;;;11.50;99.90;;;;;;5034906;28;36589;-48
2022/06/03 04:04:35;;;;;;;;;;;11.50;99.90;;;;;;5035287;28;37317;-51
2022/06/03 04:07:17;;;;;;;;;;;11.60;99.90;;;;;;5035094;28;37212;-49
2022/06/03 04:09:54;;;;;;;;;;;11.70;99.90;;;;;;5034993;28;37616;-51
2022/06/03 04:12:42;;;;;;;;;;;11.80;99.90;;;;;;5035069;28;38280;-51
2022/06/03 04:15:27;;;;;;;;;;;11.90;99.90;;;;;;5020040;28;37289;-50
2022/06/03 04:18:08;;;;;;;;;;;12.00;99.90;;;;;;5032363;28;36981;-52
2022/06/03 04:21:05;;;;;;;;;;;12.10;99.90;;;;;;5031369;28;37893;-49
2022/06/03 04:23:45;;;;;;;;;;;12.20;99.90;;;;;;5036277;28;38174;-47
2022/06/03 04:26:30;;;;;;;;;;;12.40;99.90;;;;;;5034081;28;39704;-49
2022/06/03 04:29:34;;;;;;;;;;;12.50;99.90;;;;;;5027073;28;38521;-48
2022/06/03 04:32:24;;;;;;;;;;;12.70;99.90;;;;;;5029040;28;38014;-49
2022/06/03 04:35:12;;;;;;;;;;;12.90;99.90;;;;;;5029265;28;38621;-50
2022/06/03 04:37:54;;;;;;;;;;;13.00;99.90;;;;;;5034530;28;35291;-49
2022/06/03 04:40:39;;;;;;;;;;;13.20;99.90;;;;;;5009947;28;38825;-48
2022/06/03 04:43:24;;;;;;;;;;;13.30;99.90;;;;;;5034526;28;36542;-50
2022/06/03 04:46:08;;;;;;;;;;;13.40;99.90;;;;;;5032813;28;40021;-50
2022/06/03 04:49:09;;;;;;;;;;;13.50;99.90;;;;;;5034135;28;38177;-51
2022/06/03 04:51:55;;;;;;;;;;;13.60;99.90;;;;;;5034139;28;36543;-49
2022/06/03 04:54:40;;;;;;;;;;;13.70;99.90;;;;;;5034725;28;37405;-49
2022/06/03 04:57:25;;;;;;;;;;;13.80;99.90;;;;;;5034490;28;39671;-50
2022/06/03 05:00:05;;;;;;;;;;;13.90;99.90;;;;;;5034683;28;35899;-49
2022/06/03 05:02:50;;;;;;;;;;;13.90;99.90;;;;;;5034973;28;34875;-52
2022/06/03 05:05:35;;;;;;;;;;;14.00;99.90;;;;;;5018433;28;38477;-52
2022/06/03 05:08:20;;;;;;;;;;;14.00;99.90;;;;;;5030587;28;37771;-50
2022/06/03 05:11:13;;;;;;;;;;;14.10;99.90;;;;;;5030692;28;37175;-48
2022/06/03 05:14:01;;;;;;;;;;;14.20;99.90;;;;;;5028115;28;37080;-50
2022/06/03 05:16:43;;;;;;;;;;;14.30;99.90;;;;;;5022577;28;37892;-48
2022/06/03 05:19:40;;;;;;;;;;;14.40;99.90;;;;;;5023060;28;36853;-49
2022/06/03 05:22:18;;;;;;;;;;;14.50;99.90;;;;;;4964914;28;38008;-49
2022/06/03 05:25:04;;;;;;;;;;;14.60;99.90;;;;;;5007793;28;37792;-50
2022/06/03 05:28:01;;;;;;;;;;;14.70;99.90;;;;;;5033374;28;38881;-48
2022/06/03 05:30:54;;;;;;;;;;;14.80;99.90;;;;;;4969836;28;38334;-50
2022/06/03 05:33:33;;;;;;;;;;;15.00;99.90;;;;;;5024431;28;35867;-52
2022/06/03 05:36:29;;;;;;;;;;;15.00;99.50;;;;;;5032087;28;37126;-49
2022/06/03 05:39:17;;;;;;;;;;;15.10;99.10;;;;;;5027704;28;39442;-50
2022/06/03 05:42:27;;;;;;;;;;;15.20;99.80;;;;;;5034639;28;38216;-48
2022/06/03 05:45:07;;;;;;;;;;;15.20;98.80;;;;;;5026337;28;37404;-47
2022/06/03 05:47:36;;;;;;;;;;;15.30;98.40;;;;;;5033204;28;36948;-51
2022/06/03 05:50:04;;;;;;;;;;;15.40;97.70;;;;;;5034331;28;37508;-50
2022/06/03 05:52:41;;;;;;;;;;;15.40;97.60;;;;;;5033518;28;38582;-49
2022/06/03 05:55:15;;;;;;;;;;;15.50;97.30;;;;;;5029558;28;36193;-49
2022/06/03 05:57:49;;;;;;;;;;;15.50;96.70;;;;;;5030703;28;35196;-51
2022/06/03 06:00:33;;;;;;;;;;;15.60;96.70;;;;;;5017482;28;37864;-53
2022/06/03 06:03:08;;;;;;;;;;;15.60;96.50;;;;;;5029949;28;37728;-49
2022/06/03 06:05:38;;;;;;;;;;;15.80;96.90;;;;;;5023595;28;37109;-53
2022/06/03 06:08:10;;;;;;;;;;;15.90;97.30;;;;;;5024231;28;36375;-52
2022/06/03 06:10:42;;;;;;;;;;;16.00;97.30;;;;;;5023091;28;39878;-52
2022/06/03 06:13:21;;;;;;;;;;;16.10;96.70;;;;;;5029728;28;36671;-52
2022/06/03 06:16:01;;;;;;;;;;;16.20;95.80;;;;;;5017465;28;37533;-53
2022/06/03 06:18:33;;;;;;;;;;;16.30;96.20;;;;;;5026152;28;37556;-53
2022/06/03 06:21:06;;;;;;;;;;;16.40;95.50;;;;;;5025359;28;37995;-53
2022/06/03 06:23:40;;;;;;;;;;;16.50;94.00;;;;;;5027517;28;38925;-57
2022/06/03 06:26:25;;;;;;;;;;;16.50;93.40;;;;;;5020434;28;37461;-58
2022/06/03 06:28:59;;;;;;;;;;;16.60;91.60;;;;;;5024706;28;37166;-58
2022/06/03 06:31:49;;;;;;;;;;;16.60;92.20;;;;;;5021223;28;37860;-58
2022/06/03 06:34:30;;;;;;;;;;;16.70;91.60;;;;;;5021743;28;37458;-57
2022/06/03 06:37:21;;;;;;;;;;;16.80;91.40;;;;;;5031174;28;36813;-57
2022/06/03 06:39:56;;;;;;;;;;;16.90;90.30;;;;;;5031806;28;37205;-57
2022/06/03 06:42:28;;;;;;;;;;;16.90;90.80;;;;;;5032635;28;38502;-58
2022/06/03 06:45:02;;;;;;;;;;;16.90;91.60;;;;;;5031851;28;36272;-58
2022/06/03 06:47:31;;;;;;;;;;;17.00;90.70;;;;;;5032006;28;39704;-58
2022/06/03 06:50:07;;;;;;;;;;;17.10;88.40;;;;;;5031361;28;35235;-58
2022/06/03 06:52:48;;;;;;;;;;;17.20;87.40;;;;;;5031481;28;38605;-57
2022/06/03 06:55:21;;;;;;;;;;;17.20;90.80;;;;;;5031230;28;38794;-57
2022/06/03 06:57:50;;;;;;;;;;;17.40;90.90;;;;;;5030866;28;37707;-58
2022/06/03 07:00:22;;;;;;;;;;;17.50;90.60;;;;;;5032181;28;37325;-57
2022/06/03 07:02:51;;;;;;;;;;;17.50;90.10;;;;;;5031530;28;37948;-58
2022/06/03 07:05:20;;;;;;;;;;;17.60;88.40;;;;;;5031537;28;37730;-58
2022/06/03 07:07:53;;;;;;;;;;;17.70;88.30;;;;;;5031979;28;38409;-58
2022/06/03 07:10:25;;;;;;;;;;;17.80;84.10;;;;;;5030472;28;37284;-58
2022/06/03 07:12:58;;;;;;;;;;;17.90;85.30;;;;;;5031668;28;39087;-58
2022/06/03 07:15:26;;;;;;;;;;;17.80;81.00;;;;;;5031882;28;37865;-58
2022/06/03 07:20:49;;;;;;;;;;;17.90;82.70;;;;;;5033214;28;38074;-58
2022/06/03 07:23:21;;;;;;;;;;;18.10;81.90;;;;;;5031340;28;38455;-58
2022/06/03 07:25:54;;;;;;;;;;;18.20;82.10;;;;;;5030794;28;38872;-58
2022/06/03 07:28:29;;;;;;;;;;;18.20;79.10;;;;;;5031950;28;35879;-58
2022/06/03 07:30:59;;;;;;;;;;;18.20;75.70;;;;;;5031186;28;36692;-58
2022/06/03 07:33:37;;;;;;;;;;;18.30;79.90;;;;;;5031739;28;37805;-58
2022/06/03 07:36:09;;;;;;;;;;;18.40;81.50;;;;;;5034673;28;38624;-58
2022/06/03 07:38:41;;;;;;;;;;;18.50;79.30;;;;;;5035143;28;37695;-58
2022/06/03 07:41:14;;;;;;;;;;;18.50;80.90;;;;;;5034546;28;35178;-58
2022/06/03 07:43:45;;;;;;;;;;;18.60;80.20;;;;;;5034705;28;37993;-58
2022/06/03 07:46:14;;;;;;;;;;;18.60;79.80;;;;;;5034785;28;37867;-57
2022/06/03 07:48:41;;;;;;;;;;;18.70;73.20;;;;;;5034265;28;39600;-58
2022/06/03 07:51:09;;;;;;;;;;;18.70;80.30;;;;;;5034128;28;35282;-58
2022/06/03 07:53:42;;;;;;;;;;;18.80;75.40;;;;;;5034195;28;37800;-58
2022/06/03 07:56:10;;;;;;;;;;;18.80;75.60;;;;;;5034316;28;37856;-58
2022/06/03 07:58:37;;;;;;;;;;;18.90;71.00;;;;;;5034697;28;38357;-58
2022/06/03 08:01:06;;;;;;;;;;;18.80;75.20;;;;;;5034446;28;39208;-58
2022/06/03 08:03:36;;;;;;;;;;;18.90;76.80;;;;;;5034356;28;37359;-58
2022/06/03 08:06:04;;;;;;;;;;;19.00;74.50;;;;;;5034365;28;38099;-59
2022/06/03 08:11:24;;;;;;;;;;;19.20;73.50;;;;;;5035233;28;37361;-58
2022/06/03 08:13:52;;;;;;;;;;;19.20;75.50;;;;;;5033845;28;37688;-58
2022/06/03 08:16:29;;;;;;;;;;;19.20;70.00;;;;;;5034845;28;38492;-58
2022/06/03 08:18:58;;;;;;;;;;;19.30;70.30;;;;;;5033600;28;37411;-58
2022/06/03 08:21:27;;;;;;;;;;;19.30;68.20;;;;;;5033824;28;39371;-58
2022/06/03 08:23:55;;;;;;;;;;;19.40;67.70;;;;;;5033149;28;38704;-58
2022/06/03 08:26:24;;;;;;;;;;;19.50;71.60;;;;;;5033791;28;39453;-58
2022/06/03 08:28:53;;;;;;;;;;;19.50;70.10;;;;;;5033969;28;38225;-58
2022/06/03 08:31:22;;;;;;;;;;;19.50;67.80;;;;;;5033938;28;36138;-58
2022/06/03 08:33:52;;;;;;;;;;;19.60;68.10;;;;;;5033589;28;39127;-58
2022/06/03 08:36:21;;;;;;;;;;;19.60;63.60;;;;;;5033410;28;38507;-58
2022/06/03 08:38:50;;;;;;;;;;;19.70;67.90;;;;;;5034273;28;36411;-58
2022/06/03 08:41:26;;;;;;;;;;;19.80;64.20;;;;;;5033554;28;35684;-58
2022/06/03 08:44:02;;;;;;;;;;;19.90;66.70;;;;;;5033273;28;37946;-58
2022/06/03 08:46:35;;;;;;;;;;;19.90;64.60;;;;;;5033741;28;37471;-58
2022/06/03 08:49:05;;;;;;;;;;;20.00;65.70;;;;;;5034300;28;37797;-58
2022/06/03 08:51:35;;;;;;;;;;;20.10;62.40;;;;;;5033394;28;36234;-59
2022/06/03 08:54:06;;;;;;;;;;;20.10;60.90;;;;;;5033064;28;37684;-58
2022/06/03 08:56:36;;;;;;;;;;;20.10;61.00;;;;;;5033053;28;37989;-58
2022/06/03 08:59:05;;;;;;;;;;;20.20;65.70;;;;;;5033665;28;37970;-57
2022/06/03 09:01:36;;;;;;;;;;;20.20;62.10;;;;;;5032862;28;37140;-58
2022/06/03 09:04:09;;;;;;;;;;;20.30;67.80;;;;;;5033791;28;38389;-58
2022/06/03 09:06:43;;;;;;;;;;;20.40;62.30;;;;;;5033290;28;38473;-57
2022/06/03 09:09:13;;;;;;;;;;;20.50;68.70;;;;;;5033206;28;36073;-58
2022/06/03 09:11:43;;;;;;;;;;;20.60;61.10;;;;;;5032838;28;37165;-58
2022/06/03 09:14:12;;;;;;;;;;;20.70;62.40;;;;;;5033501;28;38295;-58
2022/06/03 09:16:41;;;;;;;;;;;20.70;65.30;;;;;;5033540;28;40245;-58
2022/06/03 09:19:15;;;;;;;;;;;20.80;61.50;;;;;;5032846;28;38299;-58
2022/06/03 09:21:44;;;;;;;;;;;20.90;62.10;;;;;;5033533;28;36510;-58
2022/06/03 09:24:14;;;;;;;;;;;21.00;60.90;;;;;;5033155;28;37885;-59
2022/06/03 09:26:43;;;;;;;;;;;21.00;59.60;;;;;;5033038;28;36588;-58
2022/06/03 09:29:11;;;;;;;;;;;21.00;64.10;;;;;;5033350;28;37436;-58
2022/06/03 09:31:39;;;;;;;;;;;21.10;61.30;;;;;;5033115;28;37076;-58
2022/06/03 09:34:07;;;;;;;;;;;21.10;64.70;;;;;;5033131;28;37414;-58
2022/06/03 09:36:36;;;;;;;;;;;21.20;64.30;;;;;;5032425;28;36116;-58
2022/06/03 09:39:04;;;;;;;;;;;21.30;60.60;;;;;;5033206;28;36817;-58
2022/06/03 09:41:35;;;;;;;;;;;21.40;60.50;;;;;;5032542;28;35027;-58
2022/06/03 09:44:03;;;;;;;;;;;21.50;64.20;;;;;;5032842;28;37931;-59
2022/06/03 09:46:31;;;;;;;;;;;21.50;58.70;;;;;;5033331;28;38741;-58
2022/06/03 09:48:59;;;;;;;;;;;21.60;61.60;;;;;;5033626;28;37871;-58
2022/06/03 09:54:09;;;;;;;;;;;21.70;60.70;;;;;;5031996;28;39171;-58
2022/06/03 09:56:37;;;;;;;;;;;21.70;58.70;;;;;;5032566;28;38613;-58
2022/06/03 09:59:05;;;;;;;;;;;21.70;62.20;;;;;;5033221;28;37314;-59
2022/06/03 10:01:32;;;;;;;;;;;21.80;62.40;;;;;;5032703;28;35107;-58
2022/06/03 10:04:00;;;;;;;;;;;21.80;59.10;;;;;;5032431;28;37035;-58
2022/06/03 10:06:50;;;;;;;;;;;21.80;61.40;;;;;;5032973;28;38529;-58
2022/06/03 10:17:33;;;;;;;;;;;22.00;60.10;;;;;;5031137;28;38238;-58
2022/06/03 10:20:00;;;;;;;;;;;22.10;62.20;;;;;;5033140;28;37342;-58
2022/06/03 10:22:29;;;;;;;;;;;22.10;60.80;;;;;;5032743;28;36216;-59
2022/06/03 10:24:58;;;;;;;;;;;22.10;58.00;;;;;;5032244;28;38784;-58
2022/06/03 10:27:26;;;;;;;;;;;22.10;57.50;;;;;;5031840;28;39296;-58
2022/06/03 10:29:53;;;;;;;;;;;22.10;58.90;;;;;;5033112;28;38162;-59
2022/06/03 10:32:21;;;;;;;;;;;22.10;57.50;;;;;;5032505;28;34951;-58
2022/06/03 10:34:48;;;;;;;;;;;22.10;56.20;;;;;;5032448;28;36676;-59
2022/06/03 10:37:20;;;;;;;;;;;22.20;54.70;;;;;;5032047;28;38671;-58
2022/06/03 10:39:47;;;;;;;;;;;22.10;54.50;;;;;;5032178;28;37746;-59
2022/06/03 10:42:16;;;;;;;;;;;21.90;53.30;;;;;;5033011;28;36016;-59
2022/06/03 10:44:45;;;;;;;;;;;21.80;54.20;;;;;;5032081;28;37751;-58
2022/06/03 10:47:15;;;;;;;;;;;21.70;55.50;;;;;;5031623;28;39006;-58
2022/06/03 10:49:51;;;;;;;;;;;21.80;56.20;;;;;;5031753;28;37077;-59
2022/06/03 11:03:30;;;;;;;;;;;22.00;54.10;;;;;;5032229;28;36339;-58
2022/06/03 11:05:57;;;;;;;;;;;22.00;57.10;;;;;;5031521;28;37892;-59
2022/06/03 11:08:25;;;;;;;;;;;22.10;56.50;;;;;;5033069;28;38427;-58
2022/06/03 11:10:55;;;;;;;;;;;22.00;57.20;;;;;;5035157;28;37092;-58
2022/06/03 11:13:28;;;;;;;;;;;22.00;58.60;;;;;;5035610;28;37154;-58
2022/06/03 11:15:55;;;;;;;;;;;21.80;56.90;;;;;;5035186;28;36406;-59
2022/06/03 11:18:26;;;;;;;;;;;21.60;57.50;;;;;;5035160;28;39391;-59
2022/06/03 11:20:54;;;;;;;;;;;21.40;55.80;;;;;;5035581;28;39857;-58
2022/06/03 11:23:21;;;;;;;;;;;21.40;60.50;;;;;;5035525;28;35091;-59
2022/06/03 11:25:50;;;;;;;;;;;21.30;57.00;;;;;;5034823;28;38458;-58
2022/06/03 11:28:18;;;;;;;;;;;21.20;58.20;;;;;;5035235;28;38242;-58
2022/06/03 11:30:51;;;;;;;;;;;21.20;59.00;;;;;;5034807;28;38139;-58
2022/06/03 11:33:26;;;;;;;;;;;21.20;61.40;;;;;;5034915;28;37225;-58
2022/06/03 11:35:55;;;;;;;;;;;21.40;66.10;;;;;;5035024;28;38123;-59
2022/06/03 11:38:28;;;;;;;;;;;21.50;57.00;;;;;;5035400;28;39358;-59
2022/06/03 11:40:57;;;;;;;;;;;21.60;61.40;;;;;;5034550;28;37338;-60
2022/06/03 11:43:28;;;;;;;;;;;21.70;59.20;;;;;;5034842;28;37297;-59
2022/06/03 11:45:59;;;;;;;;;;;21.70;57.40;;;;;;5035190;28;37908;-58
2022/06/03 11:48:29;;;;;;;;;;;21.70;58.60;;;;;;5035354;28;36736;-59
2022/06/03 11:50:57;;;;;;;;;;;21.60;62.10;;;;;;5034369;28;37128;-58
2022/06/03 11:53:26;;;;;;;;;;;21.50;65.80;;;;;;5034051;28;36258;-59
2022/06/03 11:55:54;;;;;;;;;;;21.50;58.20;;;;;;5034983;28;37865;-58
2022/06/03 11:58:23;;;;;;;;;;;21.50;61.90;;;;;;5034626;28;37591;-58
2022/06/03 12:00:52;;;;;;;;;;;21.40;59.40;;;;;;5034856;28;38387;-58
2022/06/03 12:03:35;;;;;;;;;;;21.20;60.20;;;;;;5034233;28;37412;-58
2022/06/03 12:06:05;;;;;;;;;;;21.10;65.60;;;;;;5034804;28;39194;-59
2022/06/03 12:08:37;;;;;;;;;;;21.20;66.10;;;;;;5034561;28;38126;-59
2022/06/03 12:11:09;;;;;;;;;;;21.10;60.10;;;;;;5033911;28;38333;-58
2022/06/03 12:13:35;;;;;;;;;;;21.10;62.00;;;;;;5034377;28;37114;-59
2022/06/03 12:16:06;;;;;;;;;;;21.00;64.30;;;;;;5027894;28;40107;-59
2022/06/03 12:18:55;;;;;;;;;;;21.00;65.50;;;;;;5034039;28;38404;-58
2022/06/03 12:21:44;;;;;;;;;;;20.80;62.90;;;;;;5033716;28;36250;-59
2022/06/03 12:24:25;;;;;;;;;;;20.70;62.60;;;;;;5034089;28;37228;-58
2022/06/03 12:26:52;;;;;;;;;;;20.70;62.30;;;;;;5033584;28;37981;-58
2022/06/03 12:29:22;;;;;;;;;;;20.80;65.90;;;;;;5033217;28;38860;-58
2022/06/03 12:31:49;;;;;;;;;;;20.80;62.20;;;;;;5034490;28;39736;-58
2022/06/03 12:34:23;;;;;;;;;;;20.70;64.50;;;;;;5033645;28;36586;-58
2022/06/03 12:36:52;;;;;;;;;;;20.60;67.50;;;;;;5033937;28;37659;-58
2022/06/03 12:39:24;;;;;;;;;;;20.60;67.20;;;;;;5033634;28;37818;-58
2022/06/03 12:42:00;;;;;;;;;;;20.60;70.50;;;;;;5034090;28;38691;-58
2022/06/03 12:44:38;;;;;;;;;;;20.60;74.90;;;;;;5033711;28;37507;-58
2022/06/03 12:47:25;;;;;;;;;;;20.60;71.50;;;;;;5034180;28;39210;-58
2022/06/03 12:49:54;;;;;;;;;;;20.70;70.10;;;;;;5033904;28;38714;-58
2022/06/03 12:52:42;;;;;;;;;;;20.70;72.60;;;;;;5034291;28;37245;-58
2022/06/03 12:55:10;;;;;;;;;;;20.80;74.20;;;;;;5026413;28;35178;-58
2022/06/03 12:57:41;;;;;;;;;;;20.70;73.60;;;;;;5034770;28;38936;-58
2022/06/03 13:00:11;;;;;;;;;;;20.60;74.70;;;;;;5031426;28;38589;-58
2022/06/03 13:02:48;;;;;;;;;;;20.60;74.60;;;;;;5025404;28;37217;-58
2022/06/03 13:05:27;;;;;;;;;;;20.60;79.20;;;;;;5030718;28;35267;-58
2022/06/03 13:07:59;;;;;;;;;;;20.60;75.60;;;;;;5033229;28;37972;-58
2022/06/03 13:10:31;;;;;;;;;;;20.50;78.70;;;;;;5033370;28;39173;-58
2022/06/03 13:13:12;;;;;;;;;;;20.40;79.50;;;;;;5027429;28;37881;-58
2022/06/03 13:15:43;;;;;;;;;;;20.40;78.10;;;;;;5033499;28;35084;-58
2022/06/03 13:18:13;;;;;;;;;;;20.50;77.00;;;;;;5028660;28;37648;-58
2022/06/03 13:20:43;;;;;;;;;;;20.40;76.90;;;;;;5027435;28;37886;-58
2022/06/03 13:23:30;;;;;;;;;;;20.30;78.20;;;;;;5034268;28;37281;-58
2022/06/03 13:26:21;;;;;;;;;;;20.30;77.50;;;;;;5033933;28;36228;-59
2022/06/03 13:28:49;;;;;;;;;;;20.20;77.40;;;;;;5033508;28;37777;-59
2022/06/03 13:31:19;;;;;;;;;;;20.20;78.00;;;;;;5033802;28;36641;-58
2022/06/03 13:34:16;;;;;;;;;;;20.20;78.40;;;;;;5032954;28;37427;-58
2022/06/03 13:36:48;;;;;;;;;;;20.20;76.30;;;;;;5026125;28;34621;-58
2022/06/03 13:39:35;;;;;;;;;;;20.10;74.60;;;;;;5022627;28;36338;-58
2022/06/03 13:45:11;;;;;;;;;;;20.10;76.80;;;;;;5026329;28;38928;-59
2022/06/03 13:47:48;;;;;;;;;;;20.10;79.30;;;;;;5021418;28;35015;-59
2022/06/03 13:50:20;;;;;;;;;;;20.00;76.40;;;;;;5027784;28;37506;-58
2022/06/03 13:52:52;;;;;;;;;;;20.00;78.10;;;;;;5033402;28;37944;-59
2022/06/03 13:55:23;;;;;;;;;;;20.00;79.30;;;;;;5033620;28;37785;-59
2022/06/03 13:57:51;;;;;;;;;;;19.90;73.60;;;;;;5033299;28;37352;-59
2022/06/03 14:00:22;;;;;;;;;;;19.90;75.90;;;;;;5033406;28;37375;-59
2022/06/03 14:02:51;;;;;;;;;;;19.90;73.80;;;;;;5032966;28;36971;-59
2022/06/03 14:05:28;;;;;;;;;;;19.90;72.80;;;;;;5032837;28;37331;-59
2022/06/03 14:07:59;;;;;;;;;;;19.80;75.60;;;;;;5033227;28;36294;-59
2022/06/03 14:10:27;;;;;;;;;;;19.70;73.50;;;;;;5032329;28;37662;-58
2022/06/03 14:12:59;;;;;;;;;;;19.70;75.70;;;;;;5032713;28;37889;-59
2022/06/03 14:15:27;;;;;;;;;;;19.60;71.10;;;;;;5032327;28;37425;-59
2022/06/03 14:17:57;;;;;;;;;;;19.50;73.90;;;;;;5032889;28;37459;-58
2022/06/03 14:20:31;;;;;;;;;;;19.50;74.90;;;;;;5032045;28;37642;-59
2022/06/03 14:23:05;;;;;;;;;;;19.50;74.40;;;;;;5032652;28;37801;-58
2022/06/03 14:25:35;;;;;;;;;;;19.50;74.90;;;;;;5032536;28;36912;-59
2022/06/03 14:28:08;;;;;;;;;;;19.40;70.10;;;;;;5032874;28;34157;-58
2022/06/03 14:30:39;;;;;;;;;;;19.40;72.60;;;;;;5032327;28;37900;-59
2022/06/03 14:33:08;;;;;;;;;;;19.30;72.60;;;;;;5033247;28;37874;-58
2022/06/03 14:35:38;;;;;;;;;;;19.20;70.00;;;;;;5032340;28;38354;-59
2022/06/03 14:38:11;;;;;;;;;;;19.20;69.50;;;;;;5032941;28;36993;-59
2022/06/03 14:40:40;;;;;;;;;;;19.20;66.30;;;;;;5032407;28;38705;-59
2022/06/03 14:43:09;;;;;;;;;;;19.10;67.30;;;;;;5032486;28;39878;-59
2022/06/03 14:45:40;;;;;;;;;;;19.10;68.60;;;;;;5032648;28;36918;-59
2022/06/03 14:48:11;;;;;;;;;;;19.00;66.70;;;;;;5032212;28;36637;-58
2022/06/03 14:50:41;;;;;;;;;;;19.00;68.60;;;;;;5032868;28;38240;-59
2022/06/03 14:53:15;;;;;;;;;;;19.00;66.60;;;;;;5032267;28;37717;-59
2022/06/03 14:55:44;;;;;;;;;;;18.90;67.40;;;;;;5032606;28;35958;-58
2022/06/03 14:58:14;;;;;;;;;;;18.90;65.40;;;;;;5032976;28;35219;-58
2022/06/03 15:00:53;;;;;;;;;;;18.80;66.10;;;;;;5032554;28;38249;-58
2022/06/03 15:03:22;;;;;;;;;;;18.80;68.80;;;;;;5032521;28;36438;-58
2022/06/03 15:05:52;;;;;;;;;;;18.80;70.90;;;;;;5032771;28;37035;-58
2022/06/03 15:08:23;;;;;;;;;;;18.70;67.90;;;;;;5032613;28;36702;-58
2022/06/03 15:10:55;;;;;;;;;;;18.70;69.20;;;;;;5032592;28;39291;-58
2022/06/03 15:13:23;;;;;;;;;;;18.70;68.80;;;;;;5031845;28;37989;-58
2022/06/03 15:15:51;;;;;;;;;;;18.60;71.40;;;;;;5031801;28;38034;-53
2022/06/03 15:18:19;;;;;;;;;;;18.60;70.50;;;;;;5031591;28;36951;-54
2022/06/03 15:20:56;;;;;;;;;;;18.60;74.50;;;;;;5032032;28;37624;-54
2022/06/03 15:23:25;;;;;;;;;;;18.50;73.80;;;;;;5032275;28;37532;-53
2022/06/03 15:25:54;;;;;;;;;;;18.50;69.20;;;;;;5031709;28;38455;-54
2022/06/03 15:28:24;;;;;;;;;;;18.40;70.30;;;;;;5032704;28;36156;-54
2022/06/03 15:30:54;;;;;;;;;;;18.40;69.50;;;;;;5032366;28;36980;-54
2022/06/03 15:33:23;;;;;;;;;;;18.40;68.00;;;;;;5032172;28;39358;-53
2022/06/03 15:35:58;;;;;;;;;;;18.30;70.60;;;;;;5032150;28;37681;-54
2022/06/03 15:38:30;;;;;;;;;;;18.30;71.90;;;;;;5032178;28;36392;-53